AirNav   Air Wisconsin pilot careers
 
 945 users online  

WY39 Star Valley Ranch Airport
Thayne, Wyoming, USA

GOING TO THAYNE?


FAA INFORMATION EFFECTIVE 01 FEBRUARY 2018

Location

FAA Identifier: WY39
Lat/Long: 42-58-09.7210N / 110-57-56.7540W
42-58.162017N / 110-57.945900W
42.9693669 / -110.9657650
(estimated)
Elevation: 6210 ft. / 1892.8 m (surveyed)
Variation: 15E (1985)
From city: 3 miles NE of THAYNE, WY
Time zone: UTC -7 (UTC -6 during Daylight Saving Time)
Zip code: 83127

Airport Operations

Airport use: Private use. Permission required prior to landing
Activation date: 09/1971
Control tower: no
ARTCC: SALT LAKE CITY CENTER
FSS: CASPER FLIGHT SERVICE STATION
Attendance: UNATNDD
Wind indicator: yes
Segmented circle: no

Airport Communications

WX AWOS-3 at 46U (13 nm N): 119.925 (307-654-2004)
WX AWOS-3P at AFO (16 nm S): 119.025 (307-885-2654)

Airport Services

Airframe service: NONE
Powerplant service: NONE

Runway Information

Runway 15/33

Dimensions: 5400 x 60 ft. / 1646 x 18 m
Surface: gravel
RUNWAY 15  RUNWAY 33
Traffic pattern: leftleft
Obstructions: plinepline
P-LINES BELOW NORMAL GLIDE SLOPE.

Airport Ownership and Management from official FAA records

Ownership: Privately-owned
Owner: STAR VALLEY RANCH ASSOCIATION
781 VISTA EAST DRIVE
STAR VALLEY RANCH, WY 83127
Phone 307-883-2669
Manager: TALLIA BROOKER
781 VISTA EAST DRIVE
STAR VALLEY RANCH, WY 83127
Phone 307-883-2669

Airport Operational Statistics

Aircraft based on the field: 2
Single engine airplanes: 2
    

Additional Remarks

ACFT OFTEN FUEL AT AFTON.

Instrument Procedures

There are no published instrument procedures at WY39.

Some nearby airports with instrument procedures:

KAFO - Afton Municipal Airport (16 nm S)
KJAC - Jackson Hole Airport (40 nm N)
KBPI - Miley Memorial Field Airport (44 nm SE)
KDIJ - Driggs-Reed Memorial Airport (47 nm N)
KPNA - Ralph Wenz Field Airport (52 nm E)
 
Loc | Ops | Rwys | IFR | FBO | Links
Com | Nav | Svcs | Stats | Notes

AirNav Hotels Sweepstakes
 
Area around WY39 (Star Valley Ranch Airport)
 
Road maps at: MapQuest Bing Google
 
Aerial photo
WARNING: Photo may not be current or correct
Aerial photo of WY39 (Star Valley Ranch Airport)
Do you have a better or more recent aerial photo of Star Valley Ranch Airport that you would like to share? If so, please send us your photo.

 
Sectional chart

 
Airport distance calculator
Flying to Star Valley Ranch Airport? Find the distance to fly.

From to WY39

Sunrise and sunset
Times for 17-Feb-2018
 Local
(UTC-7)
 Zulu
(UTC)
Morning civil twilight06:5013:50
Sunrise07:1914:19
Sunset17:5600:56
Evening civil twilight18:2501:25

Current date and time
Zulu (UTC)  17-Feb-2018 21:00:56
Local (UTC-7)  17-Feb-2018 14:00:56
 
METAR
KAFO 
16nm S 
172035Z AUTO RMK AO2 PWINO TSNO
TAF
KJAC 
39nm N 
171741Z 1718/1818 20015G25KT 6SM -SN BR OVC035 FM172200 19022G34KT 3SM -SN OVC015 FM180500 19020G30KT 1 1/2SM -SN BKN009 OVC015 AMD LTD TO CLD VIS AND WIND
KBPI 
45nm SE 
171741Z 1718/1818 VRB06KT P6SM SCT150 FM172100 23014G22KT P6SM BKN080 FM180100 18007KT P6SM BKN070 FM181000 19007KT P6SM VCSH SCT015 OVC035 FM181200 30010G20KT 2SM -SN OVC030
KDIJ 
47nm N 
171944Z 1720/1818 20015KT 6SM -SHSN BR OVC035 FM172200 21020G30KT 1SM -SN BLSN BKN007 OVC015 FM180200 23025G35KT 1/2SM -SN BLSN BKN005 OVC010 FM181400 21012KT P6SM VCSH BKN010 OVC040 AMD LTD TO CLD VIS AND WIND
NOTAMs
Click for the latest NOTAMs
NOTAMs are issued by the DoD/FAA and will open in a separate window not controlled by AirNav.

 

 
 

Would you like to see your business listed on this page?

 If your business provides an interesting product or service to pilots, flight crews, aircraft, or users of the Star Valley Ranch Airport, you should consider listing it here.  To start the listing process, click on the button below
 
Add a business
 

Other Pages about Star Valley Ranch Airport

Update a link
 
Copyright © AirNav, LLC. All rights reserved. Privacy Policy  Contact